Time;durP1;ratioP1;P1;durP2;ratioP2;P2;SDS_P1;SDS_P2;PMS_P1;PMS_P2;Temp;Humidity;BMP_temperature;BMP_pressure;BME280_temperature;BME280_humidity;BME280_pressure;Samples;Min_cycle;Max_cycle;Signal;HPM_P1;HPM_P2
2021/12/31 00:00:47;;;;;;;2.97;2.40;;;;;;;11.92;100.00;100956.75;5021590;28;20218;-50
2021/12/31 00:03:14;;;;;;;3.50;2.43;;;;;;;11.88;100.00;100968.88;5009920;28;20243;-50
2021/12/31 00:05:40;;;;;;;2.90;2.40;;;;;;;11.85;100.00;100963.69;5011241;28;20204;-50
2021/12/31 00:08:05;;;;;;;2.50;2.30;;;;;;;11.81;100.00;100956.78;5015436;28;20206;-50
2021/12/31 00:10:31;;;;;;;3.03;2.50;;;;;;;11.78;100.00;100969.78;5016015;28;20211;-50
2021/12/31 00:12:56;;;;;;;2.63;2.40;;;;;;;11.77;100.00;100968.91;5013192;28;20208;-50
2021/12/31 00:15:22;;;;;;;2.80;2.53;;;;;;;11.76;100.00;100968.94;5018180;28;20192;-50
2021/12/31 00:17:48;;;;;;;2.50;2.30;;;;;;;11.74;100.00;100962.00;5020317;28;20215;-50
2021/12/31 00:20:17;;;;;;;3.37;2.47;;;;;;;11.70;100.00;100960.28;5016529;28;20177;-50
2021/12/31 00:25:11;;;;;;;2.70;2.43;;;;;;;11.66;100.00;100955.13;5016538;28;20180;-50
2021/12/31 00:27:37;;;;;;;2.50;2.30;;;;;;;11.62;100.00;100951.69;5016097;28;20618;-50
2021/12/31 00:30:03;;;;;;;2.63;2.43;;;;;;;11.58;100.00;100953.41;5016782;28;20249;-50
2021/12/31 00:32:28;;;;;;;3.07;2.43;;;;;;;11.54;100.00;100958.59;5014494;28;20199;-50
2021/12/31 00:34:54;;;;;;;2.90;2.37;;;;;;;11.50;100.00;100957.75;5012199;28;20195;-50
2021/12/31 00:37:30;;;;;;;2.30;2.10;;;;;;;11.44;100.00;100950.84;5009498;28;20739;-50
2021/12/31 00:39:56;;;;;;;2.80;2.43;;;;;;;11.38;100.00;100957.78;5017341;28;20190;-50
2021/12/31 00:42:22;;;;;;;2.40;2.20;;;;;;;11.32;100.00;100957.78;5012304;28;20191;-49
2021/12/31 00:44:47;;;;;;;3.33;2.20;;;;;;;11.24;100.00;100960.38;5015594;28;20648;-50
2021/12/31 00:47:13;;;;;;;2.60;2.40;;;;;;;11.15;100.00;100963.84;5015879;28;20596;-50
2021/12/31 00:49:38;;;;;;;2.40;2.20;;;;;;;11.08;100.00;100959.53;5012921;28;20212;-50
2021/12/31 00:52:04;;;;;;;4.27;2.13;;;;;;;11.00;100.00;100956.06;5016243;28;20183;-50
2021/12/31 00:54:29;;;;;;;3.10;2.30;;;;;;;10.92;100.00;100958.66;5013101;28;20719;-50
2021/12/31 00:57:02;;;;;;;2.57;2.17;;;;;;;10.81;100.00;100959.53;5014977;28;20215;-50
2021/12/31 00:59:28;;;;;;;2.40;2.00;;;;;;;10.71;100.00;100946.56;5007851;28;20279;-50
2021/12/31 01:01:53;;;;;;;2.97;2.33;;;;;;;10.61;100.00;100949.16;5016506;28;20271;-50
2021/12/31 01:04:19;;;;;;;2.73;2.33;;;;;;;10.50;100.00;100948.28;5010757;28;20661;-50
2021/12/31 01:06:44;;;;;;;2.20;2.00;;;;;;;10.40;100.00;100947.38;5016631;28;20285;-49
2021/12/31 01:09:12;;;;;;;2.40;2.20;;;;;;;10.31;100.00;100948.19;5022394;28;20184;-49
2021/12/31 01:11:41;;;;;;;2.67;2.37;;;;;;;10.24;100.00;100956.78;5017663;28;20904;-50
2021/12/31 01:14:15;;;;;;;2.43;2.23;;;;;;;10.16;100.00;100953.31;5026211;28;20191;-50
2021/12/31 01:16:47;;;;;;;2.00;1.90;;;;;;;10.11;100.00;100960.19;5011171;28;20264;-49
2021/12/31 01:21:38;;;;;;;3.03;2.40;;;;;;;9.97;100.00;100957.56;5017844;28;20211;-49
2021/12/31 01:24:04;;;;;;;2.50;2.30;;;;;;;9.89;100.00;100953.19;5021059;28;20187;-50
2021/12/31 01:26:31;;;;;;;2.50;2.27;;;;;;;9.81;100.00;100962.66;5022179;28;20268;-49
2021/12/31 01:28:56;;;;;;;2.47;2.27;;;;;;;9.74;100.00;100963.47;5027961;28;20181;-49
2021/12/31 01:31:23;;;;;;;2.40;2.20;;;;;;;9.68;100.00;100968.63;5023812;28;20202;-48
2021/12/31 01:33:49;;;;;;;2.50;2.07;;;;;;;9.61;100.00;100965.09;5023741;28;20180;-49
2021/12/31 01:36:14;;;;;;;2.67;2.07;;;;;;;9.57;100.00;100966.81;5023205;28;20198;-50
2021/12/31 01:38:39;;;;;;;3.40;2.30;;;;;;;9.52;100.00;100967.66;5017635;28;20204;-49
2021/12/31 01:41:05;;;;;;;3.20;2.30;;;;;;;9.46;100.00;100969.31;5015517;28;20241;-49
2021/12/31 01:43:31;;;;;;;2.93;2.63;;;;;;;9.42;100.00;100958.97;5013725;28;20188;-50
2021/12/31 01:45:59;;;;;;;3.57;2.40;;;;;;;9.37;100.00;100963.25;5033335;28;20268;-50
2021/12/31 01:49:18;;;;;;;2.40;2.20;;;;;;;9.29;100.00;100953.72;5022172;28;20203;-49
2021/12/31 01:51:14;;;;;;;2.30;2.10;;;;;;;9.21;100.00;100957.09;5012270;28;20266;-50
2021/12/31 01:53:40;;;;;;;2.47;2.27;;;;;;;9.14;100.00;100959.66;5013620;28;20254;-49
2021/12/31 01:56:06;;;;;;;2.63;2.33;;;;;;;9.08;100.00;100964.75;5013134;28;20203;-49
2021/12/31 01:58:32;;;;;;;3.33;2.40;;;;;;;9.04;100.00;100970.75;5021366;28;20655;-49
2021/12/31 02:01:03;;;;;;;3.17;2.87;;;;;;;9.02;100.00;100971.59;5022538;28;20518;-50
2021/12/31 02:03:31;;;;;;;4.37;3.40;;;;;;;8.97;100.00;100964.66;5010582;28;20196;-49
2021/12/31 02:05:57;;;;;;;4.60;3.57;;;;;;;8.93;100.00;100962.91;5020813;28;20647;-49
2021/12/31 02:08:23;;;;;;;3.90;3.50;;;;;;;8.90;100.00;100955.16;5009626;28;20299;-49
2021/12/31 02:10:50;;;;;;;4.73;3.87;;;;;;;8.85;100.00;100956.81;5013250;28;20550;-50
2021/12/31 02:13:17;;;;;;;6.90;5.93;;;;;;;8.82;100.00;100954.19;5008211;28;20196;-49
2021/12/31 02:15:43;;;;;;;6.27;5.67;;;;;;;8.77;100.00;100949.00;5010635;28;20205;-49
2021/12/31 02:18:10;;;;;;;6.57;5.33;;;;;;;8.74;100.00;100954.13;5011108;28;20499;-49
2021/12/31 02:20:47;;;;;;;5.90;5.40;;;;;;;8.69;100.00;100943.78;5011273;28;20267;-50
2021/12/31 02:23:26;;;;;;;6.07;4.40;;;;;;;8.65;100.00;100941.16;5009081;28;20195;-49
2021/12/31 02:25:53;;;;;;;4.80;4.20;;;;;;;8.61;100.00;100945.44;5014205;28;20191;-50
2021/12/31 02:28:19;;;;;;;5.00;3.93;;;;;;;8.57;100.00;100938.50;5017515;28;20217;-50
2021/12/31 02:30:46;;;;;;;3.90;3.50;;;;;;;8.51;100.00;100941.88;5012156;28;20214;-50
2021/12/31 02:33:11;;;;;;;3.63;3.33;;;;;;;8.48;100.00;100943.53;5027299;28;20192;-49
2021/12/31 02:35:38;;;;;;;3.50;3.20;;;;;;;8.44;100.00;100944.34;5031007;28;20299;-50
2021/12/31 02:38:06;;;;;;;3.30;3.00;;;;;;;8.38;100.00;100935.69;5023001;28;20210;-50
2021/12/31 02:40:33;;;;;;;3.37;2.90;;;;;;;8.35;100.00;100938.22;5001987;28;20193;-50
2021/12/31 02:42:59;;;;;;;3.13;2.83;;;;;;;8.34;100.00;100935.66;5015300;28;20531;-50
2021/12/31 02:45:30;;;;;;;2.87;2.60;;;;;;;8.33;100.00;100933.91;5008424;28;20642;-50
2021/12/31 02:47:57;;;;;;;3.10;2.67;;;;;;;8.30;100.00;100933.88;5010071;28;20295;-50
2021/12/31 02:50:33;;;;;;;3.40;3.10;;;;;;;8.28;100.00;100928.72;5005699;28;20312;-50
2021/12/31 02:52:59;;;;;;;3.27;2.97;;;;;;;8.27;100.00;100921.81;5008409;28;20180;-50
2021/12/31 02:55:25;;;;;;;3.10;2.87;;;;;;;8.26;100.00;100924.38;5011776;28;20675;-50
2021/12/31 02:57:53;;;;;;;2.80;2.60;;;;;;;8.24;100.00;100924.38;5016122;28;20600;-49
2021/12/31 03:00:18;;;;;;;3.77;3.20;;;;;;;8.21;100.00;100921.75;5023472;28;20207;-50
2021/12/31 03:02:45;;;;;;;3.57;2.63;;;;;;;8.18;100.00;100921.72;5020900;28;20652;-49
2021/12/31 03:05:11;;;;;;;3.10;2.80;;;;;;;8.16;100.00;100923.44;5022898;28;20286;-49
2021/12/31 03:07:37;;;;;;;3.07;2.87;;;;;;;8.15;100.00;100924.28;5016532;28;20291;-49
2021/12/31 03:10:04;;;;;;;2.97;2.47;;;;;;;8.14;100.00;100922.53;5018467;28;20215;-50
2021/12/31 03:12:30;;;;;;;3.27;2.73;;;;;;;8.12;100.00;100919.94;5023698;28;20791;-50
2021/12/31 03:14:55;;;;;;;3.07;2.60;;;;;;;8.12;100.00;100924.22;5013034;28;20195;-50
2021/12/31 03:17:21;;;;;;;3.17;2.77;;;;;;;8.09;100.00;100925.06;5015985;28;20947;-49
2021/12/31 03:19:46;;;;;;;2.73;2.53;;;;;;;8.07;100.00;100939.66;5014056;28;20194;-50
2021/12/31 03:22:12;;;;;;;3.60;2.80;;;;;;;8.04;100.00;100939.59;5021873;28;20186;-51
2021/12/31 03:24:37;;;;;;;2.60;2.40;;;;;;;8.00;100.00;100935.25;5006103;28;20637;-51
2021/12/31 03:27:03;;;;;;;2.20;2.00;;;;;;;7.98;100.00;100944.69;5011006;28;20204;-49
2021/12/31 03:29:28;;;;;;;2.70;2.40;;;;;;;7.93;100.00;100950.66;5007774;28;20211;-51
2021/12/31 03:31:54;;;;;;;2.70;2.30;;;;;;;7.89;100.00;100946.31;5011271;28;20245;-50
2021/12/31 03:34:19;;;;;;;3.73;2.57;;;;;;;7.87;100.00;100941.97;5010477;28;20887;-50
2021/12/31 03:36:45;;;;;;;2.73;2.50;;;;;;;7.87;100.00;100941.97;5009770;28;20195;-50
2021/12/31 03:39:11;;;;;;;2.93;2.60;;;;;;;7.84;100.00;100942.78;5009647;28;20265;-50
2021/12/31 03:41:39;;;;;;;3.33;2.73;;;;;;;7.80;100.00;100953.91;5010051;28;20599;-50
2021/12/31 03:44:07;;;;;;;3.60;2.93;;;;;;;7.77;100.00;100951.31;5012326;28;20187;-50
2021/12/31 03:46:32;;;;;;;3.13;2.80;;;;;;;7.72;100.00;100951.22;5015845;28;20252;-49
2021/12/31 03:48:58;;;;;;;3.87;3.20;;;;;;;7.69;100.00;100955.47;5011616;28;20656;-49
2021/12/31 03:51:23;;;;;;;4.67;3.70;;;;;;;7.63;100.00;100957.16;5008615;28;20218;-49
2021/12/31 03:53:49;;;;;;;3.60;3.30;;;;;;;7.60;100.00;100953.63;5005553;28;20277;-50
2021/12/31 03:56:14;;;;;;;3.40;3.10;;;;;;;7.56;100.00;100955.31;5013727;28;20272;-49
2021/12/31 03:58:40;;;;;;;3.43;3.13;;;;;;;7.54;100.00;100954.41;5008625;28;20238;-50
2021/12/31 04:01:06;;;;;;;3.50;3.20;;;;;;;7.51;100.00;100958.66;5003951;28;20271;-50
2021/12/31 04:03:31;;;;;;;3.40;3.10;;;;;;;7.45;100.00;100946.56;5006657;28;20274;-50
2021/12/31 04:05:56;;;;;;;3.67;3.30;;;;;;;7.41;100.00;100957.66;5009073;28;20285;-50
2021/12/31 04:08:22;;;;;;;3.63;3.23;;;;;;;7.36;100.00;100955.03;5006641;28;20208;-49
2021/12/31 04:10:47;;;;;;;3.83;3.47;;;;;;;7.31;100.00;100946.34;5008035;28;20858;-50
2021/12/31 04:13:13;;;;;;;3.90;3.33;;;;;;;7.21;100.00;100937.63;5004165;28;20240;-49
2021/12/31 04:15:39;;;;;;;2.90;2.70;;;;;;;7.15;100.00;100938.41;5006466;28;20276;-49
2021/12/31 04:18:04;;;;;;;3.13;2.73;;;;;;;7.07;100.00;100942.56;5006444;28;20209;-49
2021/12/31 04:20:36;;;;;;;2.83;2.60;;;;;;;7.02;100.00;100936.47;5003170;28;20364;-50
2021/12/31 04:23:04;;;;;;;2.90;2.60;;;;;;;6.95;100.00;100945.81;5002977;28;20355;-51
2021/12/31 04:25:30;;;;;;;2.67;2.47;;;;;;;6.90;100.00;100942.28;5013477;28;20192;-49
2021/12/31 04:27:55;;;;;;;2.97;2.67;;;;;;;6.87;100.00;100942.25;5013485;28;20378;-49
2021/12/31 04:30:21;;;;;;;3.23;2.90;;;;;;;6.85;100.00;100928.50;5014466;28;20218;-49
2021/12/31 04:32:47;;;;;;;2.60;2.40;;;;;;;6.83;100.00;100927.59;5015453;28;20275;-49
2021/12/31 04:35:12;;;;;;;3.20;2.93;;;;;;;6.81;100.00;100929.28;5012115;28;20265;-49
2021/12/31 04:37:42;;;;;;;3.07;2.67;;;;;;;6.78;100.00;100932.66;5008035;28;20217;-49
2021/12/31 04:40:11;;;;;;;2.90;2.60;;;;;;;6.75;100.00;100937.75;5009828;28;20197;-49
2021/12/31 04:42:40;;;;;;;3.23;2.83;;;;;;;6.70;100.00;100932.53;5008508;28;20189;-50
2021/12/31 04:45:07;;;;;;;3.33;2.60;;;;;;;6.66;100.00;100933.31;5011557;28;20189;-50
2021/12/31 04:47:32;;;;;;;3.40;3.10;;;;;;;6.63;100.00;100933.25;5009095;28;20210;-49
2021/12/31 04:49:57;;;;;;;2.73;2.53;;;;;;;6.60;100.00;100922.91;5005910;28;20243;-50
2021/12/31 04:52:23;;;;;;;3.13;2.83;;;;;;;6.56;100.00;100923.72;5012344;28;20195;-49
2021/12/31 04:54:48;;;;;;;2.67;2.47;;;;;;;6.54;100.00;100922.81;5003461;28;20185;-49
2021/12/31 04:57:13;;;;;;;3.53;2.70;;;;;;;6.50;100.00;100927.03;5014580;28;20420;-50
2021/12/31 04:59:39;;;;;;;2.90;2.27;;;;;;;6.44;100.00;100926.91;5008331;28;20205;-50
2021/12/31 05:02:04;;;;;;;3.30;2.30;;;;;;;6.38;100.00;100931.94;5011277;28;20183;-50
2021/12/31 05:04:29;;;;;;;2.30;2.10;;;;;;;6.32;100.00;100927.53;5010711;28;20202;-49
2021/12/31 05:06:55;;;;;;;2.53;2.33;;;;;;;6.28;100.00;100925.75;5013821;28;20833;-49
2021/12/31 05:09:20;;;;;;;2.37;2.17;;;;;;;6.25;100.00;100934.28;5007386;28;20721;-50
2021/12/31 05:11:46;;;;;;;2.47;2.27;;;;;;;6.22;100.00;100925.66;5018021;28;20300;-49
2021/12/31 05:14:11;;;;;;;2.40;2.20;;;;;;;6.17;100.00;100924.69;5020919;28;20782;-50
2021/12/31 05:16:37;;;;;;;2.20;1.87;;;;;;;6.13;100.00;100920.31;5010539;28;20685;-49
2021/12/31 05:19:04;;;;;;;2.00;1.90;;;;;;;6.08;100.00;100923.69;5011858;28;20207;-49
2021/12/31 05:21:30;;;;;;;2.57;2.23;;;;;;;6.05;100.00;100918.47;5009392;28;20203;-49
2021/12/31 05:23:56;;;;;;;2.40;2.20;;;;;;;6.03;100.00;100919.28;5009999;28;20712;-50
2021/12/31 05:26:21;;;;;;;2.63;1.97;;;;;;;6.01;100.00;100915.81;5014427;28;20549;-49
2021/12/31 05:28:47;;;;;;;2.37;2.17;;;;;;;5.97;100.00;100904.59;5013502;28;20847;-49
2021/12/31 05:31:12;;;;;;;2.10;2.00;;;;;;;5.95;100.00;100896.84;5021876;28;20212;-49
2021/12/31 05:33:37;;;;;;;2.10;1.90;;;;;;;5.94;100.00;100907.09;5017415;28;20197;-49
2021/12/31 05:36:03;;;;;;;2.90;2.20;;;;;;;5.90;100.00;100907.88;5008339;28;20199;-50
2021/12/31 05:38:28;;;;;;;2.50;2.30;;;;;;;5.88;100.00;100904.38;5013919;28;20308;-49
2021/12/31 05:40:54;;;;;;;2.10;1.90;;;;;;;5.86;100.00;100906.06;5014746;28;20199;-50
2021/12/31 05:43:19;;;;;;;2.23;2.00;;;;;;;5.82;100.00;100915.41;5013960;28;20194;-49
2021/12/31 05:45:44;;;;;;;2.10;1.90;;;;;;;5.77;100.00;100910.19;5013576;28;20716;-50
2021/12/31 05:48:10;;;;;;;3.20;2.57;;;;;;;5.75;100.00;100908.41;5013623;28;20214;-50
2021/12/31 05:50:35;;;;;;;2.00;1.80;;;;;;;5.72;100.00;100911.78;5019355;28;20222;-50
2021/12/31 05:53:01;;;;;;;3.60;2.10;;;;;;;5.67;100.00;100903.13;5017978;28;20232;-49
2021/12/31 05:55:27;;;;;;;3.43;2.03;;;;;;;5.65;100.00;100903.09;5009307;28;20218;-49
2021/12/31 05:57:55;;;;;;;2.10;1.90;;;;;;;5.62;100.00;100895.31;5011488;28;20279;-50
2021/12/31 06:00:20;;;;;;;2.57;2.30;;;;;;;5.61;100.00;100890.16;5006842;28;20195;-50
2021/12/31 06:02:46;;;;;;;2.27;2.00;;;;;;;5.62;100.00;100889.31;5016504;28;20189;-50
2021/12/31 06:05:11;;;;;;;2.17;1.97;;;;;;;5.60;100.00;100889.25;5016947;28;20284;-50
2021/12/31 06:07:37;;;;;;;2.60;2.10;;;;;;;5.60;100.00;100899.53;5014816;28;20677;-50
2021/12/31 06:10:02;;;;;;;2.10;1.90;;;;;;;5.59;100.00;100900.41;5021712;28;20216;-50
2021/12/31 06:12:28;;;;;;;2.30;2.10;;;;;;;5.57;100.00;100894.34;5015827;28;20193;-50
2021/12/31 06:14:58;;;;;;;2.37;2.17;;;;;;;5.56;100.00;100900.31;5022846;28;20213;-49
2021/12/31 06:17:26;;;;;;;2.13;2.00;;;;;;;5.56;100.00;100889.19;5025620;28;20211;-49
2021/12/31 06:19:53;;;;;;;2.57;2.30;;;;;;;5.54;100.00;100899.41;5020686;28;20177;-48
2021/12/31 06:22:19;;;;;;;2.40;2.20;;;;;;;5.52;100.00;100897.66;5013957;28;20188;-50
2021/12/31 06:24:44;;;;;;;2.57;2.23;;;;;;;5.52;100.00;100895.09;5026779;28;20187;-50
2021/12/31 06:27:10;;;;;;;2.10;1.90;;;;;;;5.52;100.00;100901.09;5014294;28;20221;-50
2021/12/31 06:29:35;;;;;;;2.60;2.40;;;;;;;5.49;100.00;100899.34;5011866;28;20300;-50
2021/12/31 06:32:00;;;;;;;1.90;1.70;;;;;;;5.47;100.00;100900.09;5023062;28;20275;-50
2021/12/31 06:34:26;;;;;;;2.10;2.00;;;;;;;5.43;100.00;100906.88;5026865;28;20192;-50
2021/12/31 06:36:51;;;;;;;2.60;1.83;;;;;;;5.41;100.00;100917.97;5028819;28;20211;-50
2021/12/31 06:39:16;;;;;;;1.77;1.63;;;;;;;5.36;100.00;100912.72;5022709;28;20198;-49
2021/12/31 06:41:42;;;;;;;2.40;2.20;;;;;;;5.34;100.00;100911.81;5024070;28;20221;-50
2021/12/31 06:44:07;;;;;;;2.27;2.07;;;;;;;5.30;100.00;100921.13;5027687;28;20246;-50
2021/12/31 06:46:34;;;;;;;3.03;2.40;;;;;;;5.29;100.00;100915.97;5027976;28;20187;-50
2021/12/31 06:48:59;;;;;;;2.90;2.60;;;;;;;5.24;100.00;100923.56;5023618;28;20645;-50
2021/12/31 06:51:25;;;;;;;2.47;2.27;;;;;;;5.23;100.00;100928.66;5027794;28;20263;-49
2021/12/31 06:53:50;;;;;;;2.50;2.30;;;;;;;5.21;100.00;100930.34;5026909;28;20191;-49
2021/12/31 06:56:15;;;;;;;2.83;2.60;;;;;;;5.18;100.00;100929.44;5027793;28;20192;-50
2021/12/31 06:58:41;;;;;;;2.47;2.27;;;;;;;5.15;100.00;100933.59;5037247;28;20331;-49
2021/12/31 07:01:06;;;;;;;1.97;1.87;;;;;;;5.12;100.00;100938.69;5019460;28;20636;-50
2021/12/31 07:03:32;;;;;;;1.90;1.70;;;;;;;5.09;100.00;100930.91;5034816;28;20195;-50
2021/12/31 07:05:57;;;;;;;1.70;1.60;;;;;;;5.04;100.00;100928.25;5029450;28;20195;-50
2021/12/31 07:08:23;;;;;;;1.73;1.63;;;;;;;5.02;100.00;100922.19;5018170;28;20778;-50
2021/12/31 07:10:48;;;;;;;1.60;1.50;;;;;;;4.99;100.00;100914.44;5027101;28;20748;-50
2021/12/31 07:13:13;;;;;;;1.50;1.40;;;;;;;4.98;100.00;100911.00;5019478;28;20186;-51
2021/12/31 07:15:48;;;;;;;1.83;1.67;;;;;;;4.99;100.00;100911.84;5018403;28;20763;-51
2021/12/31 07:18:14;;;;;;;2.30;2.10;;;;;;;4.99;100.00;100909.28;5010910;28;20203;-49
2021/12/31 07:20:40;;;;;;;1.90;1.70;;;;;;;4.99;100.00;100911.84;5014082;28;20187;-49
2021/12/31 07:23:07;;;;;;;2.00;1.80;;;;;;;5.01;100.00;100916.19;5010115;28;20194;-50
2021/12/31 07:25:33;;;;;;;2.00;1.77;;;;;;;5.01;100.00;100920.47;5015370;28;20604;-50
2021/12/31 07:27:59;;;;;;;2.67;1.57;;;;;;;5.00;100.00;100922.16;5012256;28;20207;-50
2021/12/31 07:30:24;;;;;;;2.57;2.03;;;;;;;5.00;100.00;100929.00;5015261;28;20254;-50
2021/12/31 07:32:49;;;;;;;2.00;1.80;;;;;;;4.96;100.00;100929.75;5019789;28;20219;-50
2021/12/31 07:35:15;;;;;;;1.70;1.60;;;;;;;4.91;100.00;100924.50;5037283;28;20268;-50
2021/12/31 07:37:40;;;;;;;2.77;1.40;;;;;;;4.90;100.00;100924.47;5030000;28;20218;-50
2021/12/31 07:40:07;;;;;;;1.50;1.40;;;;;;;4.85;100.00;100917.53;5017715;28;20183;-50
2021/12/31 07:42:33;;;;;;;1.60;1.40;;;;;;;4.82;100.00;100921.72;5007922;28;20180;-49
2021/12/31 07:44:58;;;;;;;1.50;1.40;;;;;;;4.81;100.00;100925.97;5014271;28;20176;-50
2021/12/31 07:47:23;;;;;;;2.07;1.60;;;;;;;4.83;100.00;100933.72;5009750;28;20223;-50
2021/12/31 07:49:49;;;;;;;1.37;1.20;;;;;;;4.85;100.00;100932.91;5009617;28;20672;-50
2021/12/31 07:52:14;;;;;;;1.50;1.40;;;;;;;4.93;100.00;100937.34;5013860;28;20191;-50
2021/12/31 07:54:42;;;;;;;1.60;1.50;;;;;;;4.98;100.00;100944.34;5015858;28;20200;-50
2021/12/31 07:57:07;;;;;;;1.87;1.70;;;;;;;5.03;100.00;100950.44;5009629;28;20289;-50
2021/12/31 07:59:33;;;;;;;2.33;2.13;;;;;;;5.09;100.00;100951.44;5012988;28;20275;-50
2021/12/31 08:01:58;;;;;;;2.93;2.23;;;;;;;5.13;100.00;100968.66;5017214;28;20188;-49
2021/12/31 08:04:23;;;;;;;2.83;2.40;;;;;;;5.17;100.00;100973.88;5012133;28;20633;-50
2021/12/31 08:06:49;;;;;;;2.83;2.47;;;;;;;5.20;100.00;100970.50;5012759;28;20632;-50
2021/12/31 08:09:14;;;;;;;3.37;2.90;;;;;;;5.24;100.00;100961.19;5015479;28;20181;-50
2021/12/31 08:11:41;;;;;;;3.50;2.43;;;;;;;5.32;100.00;100959.69;5012642;28;20714;-50
2021/12/31 08:14:07;;;;;;;2.87;2.57;;;;;;;5.41;100.00;100971.88;5011304;28;20710;-50
2021/12/31 08:16:33;;;;;;;3.03;2.73;;;;;;;5.53;100.00;100973.81;5009530;28;20929;-50
2021/12/31 08:18:58;;;;;;;2.90;2.60;;;;;;;5.62;100.00;100968.91;5010496;28;20196;-50
2021/12/31 08:21:23;;;;;;;4.33;3.37;;;;;;;5.70;100.00;100961.38;5013805;28;20200;-50
2021/12/31 08:23:49;;;;;;;3.13;2.80;;;;;;;5.77;100.00;100961.56;5015039;28;20728;-50
2021/12/31 08:26:14;;;;;;;3.97;3.20;;;;;;;5.82;100.00;100953.94;5016793;28;20185;-50
2021/12/31 08:28:40;;;;;;;3.43;3.00;;;;;;;5.87;100.00;100944.63;5026393;28;20207;-50
2021/12/31 08:31:06;;;;;;;2.90;2.60;;;;;;;5.94;100.00;100941.34;5021149;28;20676;-50
2021/12/31 08:33:31;;;;;;;5.33;3.20;;;;;;;6.00;100.00;100929.50;5018424;28;20335;-50
2021/12/31 08:35:56;;;;;;;3.40;3.10;;;;;;;6.07;100.00;100939.94;5018832;28;20207;-50
2021/12/31 08:38:23;;;;;;;3.23;2.77;;;;;;;6.16;100.00;100943.50;5014810;28;20696;-50
2021/12/31 08:40:48;;;;;;;2.80;2.60;;;;;;;6.25;100.00;100948.84;5011848;28;20686;-50
2021/12/31 08:43:14;;;;;;;3.00;2.70;;;;;;;6.35;100.00;100942.19;5013081;28;20270;-50
2021/12/31 08:45:39;;;;;;;2.77;2.57;;;;;;;6.47;100.00;100923.53;5011242;28;20185;-50
2021/12/31 08:48:05;;;;;;;2.77;2.57;;;;;;;6.56;100.00;100916.00;5016246;28;20279;-50
2021/12/31 08:50:31;;;;;;;3.20;2.53;;;;;;;6.66;100.00;100924.72;5014834;28;20300;-50
2021/12/31 08:52:57;;;;;;;3.37;2.87;;;;;;;6.73;100.00;100910.28;5009752;28;20282;-49
2021/12/31 08:55:23;;;;;;;3.07;2.70;;;;;;;6.80;100.00;100901.81;5011345;28;20542;-50
2021/12/31 08:57:49;;;;;;;3.57;3.17;;;;;;;6.86;100.00;100900.19;5009254;28;20543;-50
2021/12/31 09:00:14;;;;;;;3.80;2.90;;;;;;;6.94;100.00;100896.91;5009955;28;20649;-50
2021/12/31 09:02:40;;;;;;;2.90;2.67;;;;;;;7.01;100.00;100898.72;5012232;28;20215;-50
2021/12/31 09:05:07;;;;;;;3.20;2.83;;;;;;;7.11;100.00;100899.72;5009307;28;20272;-49
2021/12/31 09:07:33;;;;;;;3.20;2.50;;;;;;;7.21;100.00;100898.16;5008575;28;20749;-50
2021/12/31 09:10:02;;;;;;;2.63;2.17;;;;;;;7.33;100.00;100895.75;5012516;28;20497;-50
2021/12/31 09:12:28;;;;;;;2.47;2.17;;;;;;;7.45;100.00;100902.78;5007514;28;20196;-50
2021/12/31 09:14:53;;;;;;;2.20;2.00;;;;;;;7.57;100.00;100897.81;5008123;28;20640;-50
2021/12/31 09:17:19;;;;;;;2.30;2.10;;;;;;;7.70;100.00;100896.25;5014876;28;20263;-50
2021/12/31 09:19:44;;;;;;;2.13;1.80;;;;;;;7.81;100.00;100893.78;5009109;28;20191;-50
2021/12/31 09:22:09;;;;;;;1.53;1.43;;;;;;;7.92;100.00;100894.81;5014490;28;20353;-49
2021/12/31 09:24:35;;;;;;;2.13;1.83;;;;;;;8.02;100.00;100888.03;5008725;28;20202;-49
2021/12/31 09:27:01;;;;;;;1.63;1.53;;;;;;;8.15;100.00;100880.44;5016427;28;20231;-49
2021/12/31 09:29:26;;;;;;;2.00;1.80;;;;;;;8.24;100.00;100877.94;5023739;28;20197;-49
2021/12/31 09:31:52;;;;;;;1.73;1.63;;;;;;;8.34;100.00;100894.38;5019090;28;20199;-50
2021/12/31 09:34:18;;;;;;;1.77;1.67;;;;;;;8.42;100.00;100892.72;5011679;28;21097;-49
2021/12/31 09:36:44;;;;;;;1.73;1.63;;;;;;;8.49;100.00;100889.41;5013787;28;20196;-49
2021/12/31 09:39:10;;;;;;;1.80;1.70;;;;;;;8.60;100.00;100893.78;5008362;28;20184;-50
2021/12/31 09:41:36;;;;;;;1.90;1.50;;;;;;;8.67;100.00;100898.16;5008796;28;20180;-50
2021/12/31 09:44:01;;;;;;;1.93;1.80;;;;;;;8.74;100.00;100912.00;5012454;28;20217;-50
2021/12/31 09:46:27;;;;;;;1.93;1.83;;;;;;;8.81;100.00;100908.59;5010719;28;20275;-50
2021/12/31 09:48:52;;;;;;;2.20;2.00;;;;;;;8.88;100.00;100914.66;5031479;28;20220;-49
2021/12/31 09:51:20;;;;;;;2.93;2.33;;;;;;;8.94;100.00;100917.31;5018459;28;20647;-50
2021/12/31 09:53:46;;;;;;;4.67;2.60;;;;;;;9.00;100.00;100920.81;5015496;28;20224;-49
2021/12/31 09:56:13;;;;;;;2.67;2.37;;;;;;;9.06;100.00;100909.66;5015132;28;20187;-49
2021/12/31 09:58:39;;;;;;;3.00;2.70;;;;;;;9.11;100.00;100905.41;5013556;28;20207;-49
2021/12/31 10:01:07;;;;;;;3.60;2.73;;;;;;;9.18;100.00;100918.34;5015913;28;20648;-49
2021/12/31 10:03:34;;;;;;;2.67;2.40;;;;;;;9.23;100.00;100924.41;5016678;28;20199;-51
2021/12/31 10:06:05;;;;;;;3.13;2.83;;;;;;;9.28;100.00;100931.31;5014559;28;20568;-51
2021/12/31 10:08:45;;;;;;;3.60;2.80;;;;;;;9.34;100.00;100917.59;5017892;28;20625;-50
2021/12/31 10:11:21;;;;;;;3.07;2.77;;;;;;;9.40;100.00;100902.13;5010125;28;20219;-49
2021/12/31 10:14:01;;;;;;;3.40;3.10;;;;;;;9.43;100.00;100886.66;5014703;28;20656;-52
2021/12/31 10:16:35;;;;;;;3.43;3.13;;;;;;;9.48;100.00;100890.97;5016124;28;20198;-49
2021/12/31 10:19:11;;;;;;;3.57;3.27;;;;;;;9.51;100.00;100875.47;5013562;28;20190;-49
2021/12/31 10:21:52;;;;;;;3.50;3.10;;;;;;;9.56;100.00;100884.13;5015690;28;20196;-50
2021/12/31 10:24:26;;;;;;;3.80;3.50;;;;;;;9.59;100.00;100890.16;5013397;28;20202;-50
2021/12/31 10:26:54;;;;;;;3.97;3.57;;;;;;;9.64;100.00;100885.00;5014370;28;20216;-49
2021/12/31 10:29:20;;;;;;;3.87;3.47;;;;;;;9.68;100.00;100884.19;5022077;28;20192;-50
2021/12/31 10:31:51;;;;;;;3.63;3.33;;;;;;;9.74;100.00;100875.59;5016666;28;20265;-49
2021/12/31 10:34:36;;;;;;;3.80;3.50;;;;;;;9.77;100.00;100883.34;5016205;28;20483;-58
2021/12/31 10:37:23;;;;;;;4.90;4.33;;;;;;;9.82;100.00;100893.72;5013852;28;20236;-49
2021/12/31 10:40:00;;;;;;;6.40;5.53;;;;;;;9.85;100.00;100885.97;5013960;28;20187;-50
2021/12/31 10:42:31;;;;;;;5.97;5.37;;;;;;;9.87;100.00;100892.88;5010101;28;20189;-49
2021/12/31 10:44:57;;;;;;;6.03;5.43;;;;;;;9.87;100.00;100881.66;5012994;28;20195;-50
2021/12/31 10:47:37;;;;;;;6.17;5.57;;;;;;;9.91;100.00;100873.94;5011291;28;20219;-50
2021/12/31 10:50:02;;;;;;;5.73;5.23;;;;;;;9.93;100.00;100868.75;5011614;28;20740;-49
2021/12/31 10:52:41;;;;;;;6.03;5.47;;;;;;;9.95;100.00;100859.28;5013548;28;20191;-51
2021/12/31 10:55:23;;;;;;;5.57;5.10;;;;;;;10.01;100.00;100867.06;5014971;28;20631;-50
2021/12/31 10:57:52;;;;;;;6.10;5.50;;;;;;;10.09;100.00;100871.38;5011637;28;20279;-50
2021/12/31 11:00:19;;;;;;;5.87;5.37;;;;;;;10.17;100.00;100877.44;5011662;28;20194;-50
2021/12/31 11:02:45;;;;;;;6.20;5.70;;;;;;;10.26;100.00;100874.03;5011975;28;20187;-49
2021/12/31 11:05:15;;;;;;;5.50;5.10;;;;;;;10.37;100.00;100864.53;5005102;28;20203;-49
2021/12/31 11:07:41;;;;;;;5.00;4.60;;;;;;;10.48;100.00;100859.41;5012751;28;20212;-49
2021/12/31 11:10:09;;;;;;;5.20;4.80;;;;;;;10.56;100.00;100849.91;5012620;28;20222;-50
2021/12/31 11:12:35;;;;;;;4.80;4.40;;;;;;;10.67;100.00;100839.56;5013712;28;20197;-49
2021/12/31 11:15:01;;;;;;;5.17;4.67;;;;;;;10.80;100.00;100838.69;5022397;28;20187;-49
2021/12/31 11:17:30;;;;;;;4.63;4.23;;;;;;;10.96;100.00;100849.03;5011635;28;20253;-49
2021/12/31 11:19:57;;;;;;;4.90;4.50;;;;;;;11.13;100.00;100844.69;5013327;28;20197;-49
2021/12/31 11:22:25;;;;;;;4.80;4.40;;;;;;;11.36;100.00;100858.44;5017720;28;20634;-50
2021/12/31 11:24:50;;;;;;;5.40;4.90;;;;;;;11.53;100.00;100859.25;5012310;28;20194;-51
2021/12/31 11:27:37;;;;;;;5.77;5.27;;;;;;;11.64;100.00;100868.72;5016756;28;20223;-49